createdAt,value
2022-08-02T00:02:25.480Z,4.70
2022-08-02T00:04:56.920Z,5.90
2022-08-02T00:07:26.213Z,6.20
2022-08-02T00:09:59.328Z,7.97
2022-08-02T00:12:30.888Z,5.50
2022-08-02T00:15:01.999Z,7.00
2022-08-02T00:17:31.375Z,5.83
2022-08-02T00:20:07.254Z,4.37
2022-08-02T00:22:39.662Z,5.63
2022-08-02T00:25:15.665Z,8.57
2022-08-02T00:27:46.145Z,4.60
2022-08-02T00:30:15.544Z,4.93
2022-08-02T00:32:52.032Z,4.63
2022-08-02T00:35:21.554Z,4.93
2022-08-02T00:37:54.318Z,6.37
2022-08-02T00:40:31.282Z,6.70
2022-08-02T00:43:10.052Z,8.47
2022-08-02T00:46:02.249Z,6.97
2022-08-02T00:48:30.210Z,5.83
2022-08-02T00:50:59.421Z,4.57
2022-08-02T00:53:34.533Z,5.97
2022-08-02T00:56:05.621Z,3.93
2022-08-02T00:58:35.028Z,4.47
2022-08-02T01:01:04.377Z,6.63
2022-08-02T01:03:33.708Z,4.00
2022-08-02T01:06:18.212Z,4.73
2022-08-02T01:08:47.631Z,5.33
2022-08-02T01:11:18.602Z,4.90
2022-08-02T01:13:47.949Z,5.20
2022-08-02T01:16:25.314Z,6.37
2022-08-02T01:19:03.393Z,7.50
2022-08-02T01:22:06.742Z,4.33
2022-08-02T01:25:16.448Z,4.53
2022-08-02T01:27:56.892Z,7.00
2022-08-02T01:30:29.291Z,5.47
2022-08-02T01:33:03.635Z,5.80
2022-08-02T01:35:47.431Z,5.73
2022-08-02T01:38:28.101Z,6.07
2022-08-02T01:41:03.141Z,5.10
2022-08-02T01:43:33.761Z,5.53
2022-08-02T01:46:07.113Z,3.93
2022-08-02T01:48:37.956Z,4.30
2022-08-02T01:51:08.923Z,5.03
2022-08-02T01:53:42.813Z,7.73
2022-08-02T01:56:14.566Z,4.07
2022-08-02T01:58:48.582Z,4.73
2022-08-02T02:01:20.991Z,8.67
2022-08-02T02:03:53.821Z,5.67
2022-08-02T02:06:28.255Z,4.73
2022-08-02T02:09:01.254Z,7.30
2022-08-02T02:12:12.085Z,5.50
2022-08-02T02:14:32.110Z,8.00
2022-08-02T02:18:11.267Z,5.50
2022-08-02T02:20:01.941Z,4.07
2022-08-02T02:22:31.510Z,6.03
2022-08-02T02:25:05.022Z,6.57
2022-08-02T02:27:38.113Z,5.73
2022-08-02T02:30:10.765Z,7.17
2022-08-02T02:32:43.885Z,6.57
2022-08-02T02:35:18.567Z,4.83
2022-08-02T02:37:49.284Z,5.87
2022-08-02T02:40:21.815Z,4.47
2022-08-02T02:42:53.126Z,4.93
2022-08-02T02:45:23.637Z,8.20
2022-08-02T02:47:56.983Z,6.80
2022-08-02T02:50:27.341Z,5.27
2022-08-02T02:52:57.462Z,5.07
2022-08-02T02:55:28.306Z,4.60
2022-08-02T02:57:59.409Z,7.23
2022-08-02T03:00:42.397Z,5.20
2022-08-02T03:03:17.426Z,4.43
2022-08-02T03:05:51.355Z,5.47
2022-08-02T03:08:21.004Z,5.67
2022-08-02T03:10:51.845Z,6.37
2022-08-02T03:13:21.412Z,4.53
2022-08-02T03:15:55.375Z,6.90
2022-08-02T03:18:38.769Z,8.00
2022-08-02T03:21:13.874Z,5.27
2022-08-02T03:24:00.136Z,4.93
2022-08-02T03:26:29.421Z,4.37
2022-08-02T03:28:59.065Z,5.77
2022-08-02T03:31:32.762Z,4.93
2022-08-02T03:34:04.467Z,4.93
2022-08-02T03:36:36.873Z,5.93
2022-08-02T03:39:07.835Z,6.70
2022-08-02T03:41:42.155Z,6.30
2022-08-02T03:44:12.922Z,5.10
2022-08-02T03:46:43.602Z,6.33
2022-08-02T03:49:23.377Z,7.27
2022-08-02T03:51:53.447Z,7.60
2022-08-02T03:54:23.689Z,6.50
2022-08-02T03:57:09.650Z,5.20
2022-08-02T03:59:43.856Z,5.97
2022-08-02T04:02:14.744Z,4.80
2022-08-02T04:04:45.929Z,5.63
2022-08-02T04:07:15.187Z,5.70
2022-08-02T04:10:06.549Z,5.97
2022-08-02T04:12:39.310Z,6.33
2022-08-02T04:15:13.312Z,4.63
2022-08-02T04:17:47.597Z,6.60
2022-08-02T04:20:26.482Z,6.73
2022-08-02T04:23:02.490Z,8.57
2022-08-02T04:25:34.475Z,6.13
2022-08-02T04:28:17.562Z,7.20
2022-08-02T04:30:52.907Z,7.27
2022-08-02T04:33:25.658Z,7.77
2022-08-02T04:35:59.771Z,4.43
2022-08-02T04:38:33.218Z,5.10
2022-08-02T04:41:02.508Z,6.93
2022-08-02T04:43:32.141Z,6.87
2022-08-02T04:46:04.922Z,6.53
2022-08-02T04:48:35.402Z,5.83
2022-08-02T04:51:06.235Z,6.73
2022-08-02T04:53:36.355Z,4.67
2022-08-02T04:56:05.857Z,6.73
2022-08-02T04:58:40.689Z,21.33
2022-08-02T05:01:10.630Z,6.07
2022-08-02T05:03:39.973Z,6.83
2022-08-02T05:06:19.436Z,5.97
2022-08-02T05:08:52.938Z,7.00
2022-08-02T05:11:30.090Z,6.03
2022-08-02T05:14:08.179Z,5.90
2022-08-02T05:16:38.063Z,4.13
2022-08-02T05:19:07.467Z,3.27
2022-08-02T05:21:38.426Z,4.53
2022-08-02T05:24:08.910Z,4.63
2022-08-02T05:26:38.196Z,6.57
2022-08-02T05:29:07.605Z,4.93
2022-08-02T05:31:39.753Z,3.93
2022-08-02T05:34:11.963Z,3.93
2022-08-02T05:36:43.243Z,7.93
2022-08-02T05:39:19.163Z,6.70
2022-08-02T05:41:49.133Z,7.60
2022-08-02T05:44:18.653Z,9.50
2022-08-02T05:46:47.936Z,6.53
2022-08-02T05:49:17.221Z,7.93
2022-08-02T05:52:01.632Z,5.43
2022-08-02T05:54:46.147Z,7.30
2022-08-02T05:57:22.552Z,7.23
2022-08-02T06:00:06.430Z,5.87
2022-08-02T06:02:46.847Z,6.10
2022-08-02T06:05:23.360Z,4.37
2022-08-02T06:07:57.820Z,7.17
2022-08-02T06:10:30.462Z,8.37
2022-08-02T06:13:14.648Z,5.43
2022-08-02T06:15:53.117Z,16.33
2022-08-02T06:18:27.779Z,45.60
2022-08-02T06:22:34.142Z,20.33
2022-08-02T06:23:59.398Z,23.83
2022-08-02T06:26:33.223Z,12.00
2022-08-02T06:29:05.632Z,8.27
2022-08-02T06:31:35.502Z,8.27
2022-08-02T06:34:05.267Z,7.23
2022-08-02T06:36:46.229Z,15.07
2022-08-02T06:39:28.482Z,8.60
2022-08-02T06:42:00.598Z,6.90
2022-08-02T06:44:52.961Z,7.10
2022-08-02T06:47:22.324Z,6.47
2022-08-02T06:49:54.155Z,7.83
2022-08-02T06:52:30.274Z,7.20
2022-08-02T06:55:02.530Z,7.50
2022-08-02T06:57:35.060Z,8.53
2022-08-02T07:00:09.175Z,8.17
2022-08-02T07:02:46.003Z,8.77
2022-08-02T07:05:15.257Z,8.30
2022-08-02T07:07:50.546Z,8.70
2022-08-02T07:10:24.266Z,7.88
2022-08-02T07:12:59.763Z,8.77
2022-08-02T07:15:30.036Z,9.57
2022-08-02T07:18:03.083Z,6.88
2022-08-02T07:20:34.959Z,7.05
2022-08-02T07:23:07.482Z,9.93
2022-08-02T07:26:03.189Z,10.82
2022-08-02T07:28:31.008Z,6.72
2022-08-02T07:31:02.448Z,8.32
2022-08-02T07:33:40.123Z,7.93
2022-08-02T07:36:22.852Z,7.63
2022-08-02T07:38:56.224Z,6.50
2022-08-02T07:41:30.668Z,5.90
2022-08-02T07:44:02.961Z,6.03
2022-08-02T07:46:33.665Z,8.93
2022-08-02T07:49:03.965Z,7.53
2022-08-02T07:51:38.841Z,6.93
2022-08-02T07:54:08.231Z,6.00
2022-08-02T07:56:44.833Z,7.15
2022-08-02T07:59:14.602Z,8.65
2022-08-02T08:01:46.270Z,6.97
2022-08-02T08:04:19.700Z,6.20
2022-08-02T08:06:53.026Z,8.25
2022-08-02T08:09:22.785Z,7.22
2022-08-02T08:12:08.954Z,8.85
2022-08-02T08:14:39.816Z,6.40
2022-08-02T08:17:10.082Z,6.45
2022-08-02T08:19:51.048Z,6.93
2022-08-02T08:22:24.831Z,5.65
2022-08-02T08:24:57.474Z,5.57
2022-08-02T08:27:30.594Z,6.20
2022-08-02T08:30:01.191Z,8.52
2022-08-02T08:32:31.672Z,3.28
2022-08-02T08:35:07.197Z,7.55
2022-08-02T08:37:39.838Z,5.18
2022-08-02T08:40:19.317Z,6.75
2022-08-02T08:42:53.049Z,4.35
2022-08-02T08:45:24.128Z,5.38
2022-08-02T08:48:01.003Z,5.57
2022-08-02T08:50:43.452Z,3.65
2022-08-02T08:53:13.837Z,3.17
2022-08-02T08:55:58.943Z,5.07
2022-08-02T08:58:35.181Z,5.38
2022-08-02T09:01:10.383Z,7.65
2022-08-02T09:03:44.668Z,5.07
2022-08-02T09:06:21.035Z,6.95
2022-08-02T09:08:52.718Z,2.78
2022-08-02T09:11:29.799Z,5.28
2022-08-02T09:14:04.011Z,3.50
2022-08-02T09:16:42.159Z,3.33
2022-08-02T09:19:25.481Z,2.53
2022-08-02T09:22:06.171Z,3.55
2022-08-02T09:24:52.288Z,2.20
2022-08-02T09:27:24.175Z,2.42
2022-08-02T09:30:12.748Z,1.67
2022-08-02T09:32:53.821Z,4.18
2022-08-02T09:36:07.147Z,2.97
2022-08-02T09:38:27.093Z,2.65
2022-08-02T09:40:58.036Z,3.35
2022-08-02T09:44:03.457Z,4.13
2022-08-02T09:46:42.432Z,4.13
2022-08-02T09:49:17.470Z,4.18
2022-08-02T09:51:58.667Z,4.65
2022-08-02T09:54:34.645Z,5.13
2022-08-02T09:57:13.643Z,6.03
2022-08-02T09:59:55.055Z,4.20
2022-08-02T10:02:28.797Z,5.50
2022-08-02T10:04:59.262Z,5.20
2022-08-02T10:07:39.222Z,4.68
2022-08-02T10:10:11.626Z,2.92
2022-08-02T10:12:43.901Z,5.68
2022-08-02T10:15:13.902Z,3.53
2022-08-02T10:17:53.653Z,4.90
2022-08-02T10:20:26.863Z,3.45
2022-08-02T10:23:00.238Z,4.90
2022-08-02T10:25:32.284Z,4.93
2022-08-02T10:28:07.092Z,4.55
2022-08-02T10:30:42.123Z,5.43
2022-08-02T10:33:15.001Z,5.60
2022-08-02T10:35:45.388Z,6.25
2022-08-02T10:38:18.127Z,6.22
2022-08-02T10:41:05.660Z,6.75
2022-08-02T10:43:46.016Z,4.75
2022-08-02T10:46:39.340Z,3.83
2022-08-02T10:49:38.737Z,7.03
2022-08-02T10:52:13.445Z,3.15
2022-08-02T10:54:46.224Z,5.13
2022-08-02T10:57:26.549Z,7.43
2022-08-02T10:59:59.666Z,4.88
2022-08-02T11:02:40.713Z,5.47
2022-08-02T11:05:14.102Z,3.70
2022-08-02T11:07:50.690Z,4.38
2022-08-02T11:10:41.923Z,4.30
2022-08-02T11:13:19.991Z,3.60
2022-08-02T11:16:12.312Z,7.60
2022-08-02T11:19:06.826Z,6.43
2022-08-02T11:21:47.513Z,5.20
2022-08-02T11:24:40.851Z,4.32
2022-08-02T11:27:22.853Z,3.17
2022-08-02T11:29:57.424Z,4.68
2022-08-02T11:32:32.380Z,3.38
2022-08-02T11:35:07.627Z,8.50
2022-08-02T11:37:45.670Z,2.72
2022-08-02T11:40:19.751Z,3.38
2022-08-02T11:42:56.951Z,3.28
2022-08-02T11:45:30.454Z,2.75
2022-08-02T11:47:59.855Z,6.28
2022-08-02T11:50:39.942Z,3.38
2022-08-02T11:53:24.688Z,4.53
2022-08-02T11:56:02.134Z,6.13
2022-08-02T11:58:42.110Z,5.40
2022-08-02T12:01:11.493Z,2.58
2022-08-02T12:03:47.997Z,2.30
2022-08-02T12:06:23.252Z,3.47
2022-08-02T12:08:56.858Z,3.05
2022-08-02T12:11:38.979Z,8.20
2022-08-02T12:14:14.745Z,3.85
2022-08-02T12:17:01.065Z,2.05
2022-08-02T12:19:43.451Z,1.77
2022-08-02T12:22:16.678Z,2.25
2022-08-02T12:24:57.599Z,3.00
2022-08-02T12:27:41.200Z,4.63
2022-08-02T12:30:13.447Z,6.65
2022-08-02T12:32:48.960Z,5.63
2022-08-02T12:35:26.513Z,4.35
2022-08-02T12:37:57.619Z,3.00
2022-08-02T12:40:42.250Z,3.03
2022-08-02T12:43:22.471Z,3.78
2022-08-02T12:45:59.912Z,4.00
2022-08-02T12:48:56.813Z,3.58
2022-08-02T12:51:51.311Z,4.35
2022-08-02T12:54:33.988Z,4.72
2022-08-02T12:57:21.628Z,1.77
2022-08-02T12:59:57.536Z,5.13
2022-08-02T13:02:29.193Z,6.10
2022-08-02T13:05:11.558Z,5.00
2022-08-02T13:07:45.276Z,5.78
2022-08-02T13:10:17.509Z,2.35
2022-08-02T13:12:51.181Z,4.93
2022-08-02T13:15:46.514Z,3.15
2022-08-02T13:18:12.671Z,2.38
2022-08-02T13:20:51.544Z,3.20
2022-08-02T13:23:22.098Z,3.13
2022-08-02T13:25:55.146Z,2.40
2022-08-02T13:28:28.548Z,2.05
2022-08-02T13:31:20.647Z,8.70
2022-08-02T13:33:52.151Z,2.30
2022-08-02T13:36:27.795Z,3.28
2022-08-02T13:39:01.507Z,4.38
2022-08-02T13:41:35.849Z,3.70
2022-08-02T13:44:14.476Z,3.60
2022-08-02T13:46:46.515Z,2.22
2022-08-02T13:49:19.774Z,7.55
2022-08-02T13:51:49.640Z,2.55
2022-08-02T13:54:23.248Z,3.40
2022-08-02T13:56:57.205Z,5.18
2022-08-02T13:59:57.112Z,2.08
2022-08-02T14:02:26.057Z,3.33
2022-08-02T14:04:59.975Z,3.10
2022-08-02T14:07:39.463Z,4.43
2022-08-02T14:10:09.816Z,2.35
2022-08-02T14:12:39.579Z,3.53
2022-08-02T14:15:18.104Z,2.97
2022-08-02T14:17:48.939Z,2.25
2022-08-02T14:20:30.314Z,1.95
2022-08-02T14:23:04.792Z,3.75
2022-08-02T14:25:35.749Z,2.90
2022-08-02T14:28:05.271Z,9.90
2022-08-02T14:30:42.961Z,3.92
2022-08-02T14:33:14.063Z,3.38
2022-08-02T14:35:43.695Z,2.08
2022-08-02T14:38:12.970Z,2.28
2022-08-02T14:40:46.836Z,3.40
2022-08-02T14:43:41.215Z,2.08
2022-08-02T14:46:15.022Z,3.20
2022-08-02T14:48:48.392Z,3.47
2022-08-02T14:51:23.811Z,4.07
2022-08-02T14:54:02.994Z,6.57
2022-08-02T14:56:35.429Z,2.60
2022-08-02T14:59:09.266Z,4.13
2022-08-02T15:01:47.979Z,8.15
2022-08-02T15:04:17.352Z,6.32
2022-08-02T15:06:53.793Z,3.38
2022-08-02T15:09:31.590Z,3.17
2022-08-02T15:12:05.303Z,2.03
2022-08-02T15:14:36.635Z,2.22
2022-08-02T15:17:10.288Z,2.15
2022-08-02T15:19:57.304Z,1.75
2022-08-02T15:22:30.170Z,2.65
2022-08-02T15:25:14.828Z,2.92
2022-08-02T15:27:53.817Z,2.25
2022-08-02T15:30:23.454Z,3.42
2022-08-02T15:32:55.619Z,4.20
2022-08-02T15:35:30.295Z,2.30
2022-08-02T15:38:01.356Z,3.72
2022-08-02T15:40:31.147Z,3.25
2022-08-02T15:43:05.251Z,2.65
2022-08-02T15:45:34.633Z,1.90
2022-08-02T15:48:10.033Z,1.60
2022-08-02T15:50:42.430Z,2.40
2022-08-02T15:53:15.198Z,3.00
2022-08-02T15:56:04.057Z,3.50
2022-08-02T15:58:34.647Z,2.47
2022-08-02T16:01:14.422Z,3.78
2022-08-02T16:03:46.287Z,2.30
2022-08-02T16:06:18.346Z,2.97
2022-08-02T16:08:54.896Z,2.53
2022-08-02T16:11:29.130Z,5.28
2022-08-02T16:14:05.140Z,2.00
2022-08-02T16:16:41.381Z,2.20
2022-08-02T16:19:47.041Z,2.58
2022-08-02T16:22:11.193Z,1.65
2022-08-02T16:24:44.900Z,5.43
2022-08-02T16:27:22.072Z,2.58
2022-08-02T16:29:55.433Z,2.08
2022-08-02T16:32:33.356Z,3.42
2022-08-02T16:35:09.143Z,1.98
2022-08-02T16:37:52.114Z,3.67
2022-08-02T16:40:35.399Z,2.03
2022-08-02T16:43:09.158Z,1.90
2022-08-02T16:45:39.854Z,2.38
2022-08-02T16:48:19.828Z,3.13
2022-08-02T16:50:50.810Z,1.70
2022-08-02T16:53:36.582Z,1.25
2022-08-02T16:56:12.991Z,2.22
2022-08-02T16:58:47.659Z,2.45
2022-08-02T17:01:27.229Z,1.85
2022-08-02T17:04:03.379Z,1.63
2022-08-02T17:06:39.874Z,2.35
2022-08-02T17:10:02.029Z,1.80
2022-08-02T17:12:16.719Z,1.77
2022-08-02T17:14:58.961Z,5.05
2022-08-02T17:17:33.532Z,2.88
2022-08-02T17:20:08.445Z,2.58
2022-08-02T17:22:44.368Z,3.83
2022-08-02T17:25:16.512Z,2.17
2022-08-02T17:27:46.491Z,1.48
2022-08-02T17:30:17.095Z,1.55
2022-08-02T17:32:57.620Z,3.05
2022-08-02T17:35:40.015Z,2.05
2022-08-02T17:38:26.528Z,3.03
2022-08-02T17:40:56.459Z,2.38
2022-08-02T17:43:34.076Z,4.00
2022-08-02T17:46:11.464Z,3.50
2022-08-02T17:49:01.699Z,3.45
2022-08-02T17:52:16.133Z,2.72
2022-08-02T17:54:25.993Z,2.88
2022-08-02T17:56:55.400Z,1.83
2022-08-02T17:59:41.603Z,2.13
2022-08-02T18:02:14.941Z,2.65
2022-08-02T18:04:52.158Z,4.32
2022-08-02T18:07:25.185Z,2.80
2022-08-02T18:09:59.152Z,1.52
2022-08-02T18:12:34.187Z,2.60
2022-08-02T18:15:20.097Z,2.42
2022-08-02T18:17:54.795Z,2.78
2022-08-02T18:20:32.136Z,2.60
2022-08-02T18:23:04.807Z,1.35
2022-08-02T18:25:47.682Z,2.40
2022-08-02T18:28:21.497Z,1.48
2022-08-02T18:31:00.832Z,2.35
2022-08-02T18:33:58.090Z,1.85
2022-08-02T18:36:33.955Z,2.92
2022-08-02T18:39:08.350Z,1.35
2022-08-02T18:41:44.515Z,1.63
2022-08-02T18:44:20.527Z,2.00
2022-08-02T18:46:53.521Z,2.92
2022-08-02T18:52:31.206Z,2.50
2022-08-02T18:55:16.359Z,1.58
2022-08-02T18:58:16.770Z,2.35
2022-08-02T19:00:46.464Z,2.78
2022-08-02T19:03:24.258Z,1.50
2022-08-02T19:05:54.283Z,1.77
2022-08-02T19:08:27.875Z,3.55
2022-08-02T19:11:02.995Z,1.45
2022-08-02T19:13:42.501Z,1.85
2022-08-02T19:16:20.081Z,1.95
2022-08-02T19:18:55.238Z,1.52
2022-08-02T19:22:18.710Z,2.03
2022-08-02T19:24:24.164Z,2.75
2022-08-02T19:26:56.976Z,2.03
2022-08-02T19:29:42.954Z,2.80
2022-08-02T19:32:40.742Z,2.35
2022-08-02T19:35:29.686Z,2.20
2022-08-02T19:38:16.617Z,3.92
2022-08-02T19:40:49.741Z,2.13
2022-08-02T19:44:24.291Z,1.55
2022-08-02T19:46:15.524Z,2.47
2022-08-02T19:48:48.932Z,4.35
2022-08-02T19:51:49.597Z,5.53
2022-08-02T19:54:12.328Z,6.53
2022-08-02T19:56:45.672Z,6.93
2022-08-02T19:59:15.800Z,7.10
2022-08-02T20:01:49.249Z,7.07
2022-08-02T20:04:24.198Z,4.53
2022-08-02T20:06:58.195Z,4.75
2022-08-02T20:09:33.177Z,3.65
2022-08-02T20:12:20.133Z,4.28
2022-08-02T20:15:00.245Z,3.65
2022-08-02T20:17:36.223Z,2.50
2022-08-02T20:20:06.696Z,2.80
2022-08-02T20:22:59.871Z,3.42
2022-08-02T20:25:45.231Z,2.28
2022-08-02T20:28:18.844Z,1.92
2022-08-02T20:30:59.040Z,2.72
2022-08-02T20:33:56.277Z,1.98
2022-08-02T20:36:28.560Z,3.33
2022-08-02T20:39:01.318Z,2.28
2022-08-02T20:41:37.271Z,5.57
2022-08-02T20:47:09.611Z,2.80
2022-08-02T20:49:56.934Z,3.05
2022-08-02T20:52:29.411Z,2.35
2022-08-02T20:55:05.175Z,3.20
2022-08-02T20:57:36.074Z,3.28
2022-08-02T21:03:16.466Z,3.08
2022-08-02T21:05:55.938Z,3.33
2022-08-02T21:08:30.636Z,2.10
2022-08-02T21:11:09.574Z,1.75
2022-08-02T21:14:07.352Z,2.67
2022-08-02T21:16:54.752Z,2.47
2022-08-02T21:19:34.258Z,2.83
2022-08-02T21:22:13.696Z,3.33
2022-08-02T21:24:47.477Z,2.38
2022-08-02T21:27:52.071Z,3.38
2022-08-02T21:30:13.859Z,2.33
2022-08-02T21:32:51.172Z,3.33
2022-08-02T21:35:24.170Z,4.80
2022-08-02T21:38:00.087Z,5.38
2022-08-02T21:40:33.420Z,5.47
2022-08-02T21:43:05.505Z,2.95
2022-08-02T21:45:55.473Z,2.25
2022-08-02T21:48:29.198Z,4.70
2022-08-02T21:51:02.056Z,2.70
2022-08-02T21:53:42.350Z,3.42
2022-08-02T21:56:12.444Z,3.25
2022-08-02T21:58:49.524Z,3.83
2022-08-02T22:01:24.871Z,2.88
2022-08-02T22:04:02.374Z,4.43
2022-08-02T22:06:38.742Z,3.50
2022-08-02T22:09:17.265Z,3.17
2022-08-02T22:11:51.221Z,4.28
2022-08-02T22:14:34.182Z,2.30
2022-08-02T22:19:58.901Z,2.47
2022-08-02T22:22:36.946Z,2.40
2022-08-02T22:25:10.228Z,3.78
2022-08-02T22:28:15.833Z,3.92
2022-08-02T22:30:52.596Z,4.38
2022-08-02T22:33:47.273Z,2.55
2022-08-02T22:36:34.327Z,3.05
2022-08-02T22:39:18.732Z,3.30
2022-08-02T22:42:06.427Z,3.63
2022-08-02T22:44:46.007Z,4.73
2022-08-02T22:47:15.504Z,4.83
2022-08-02T22:49:53.061Z,4.13
2022-08-02T22:52:30.883Z,5.50
2022-08-02T22:55:08.787Z,2.73
2022-08-02T22:57:56.733Z,2.97
2022-08-02T22:58:45.657Z,2.30
2022-08-02T22:58:56.832Z,2.67
2022-08-02T22:59:04.484Z,3.85
2022-08-02T22:59:10.286Z,2.75
2022-08-02T23:00:27.382Z,6.33
2022-08-02T23:02:59.919Z,2.77
2022-08-02T23:05:29.552Z,4.47
2022-08-02T23:07:58.957Z,2.60
2022-08-02T23:10:31.717Z,3.70
2022-08-02T23:13:05.093Z,2.60
2022-08-02T23:15:55.756Z,2.73
2022-08-02T23:18:42.522Z,2.87
2022-08-02T23:21:45.845Z,3.77
2022-08-02T23:24:14.689Z,3.00
2022-08-02T23:26:45.065Z,6.03
2022-08-02T23:29:19.139Z,2.87
2022-08-02T23:31:52.831Z,4.27
2022-08-02T23:34:24.780Z,3.17
2022-08-02T23:36:54.783Z,2.53
2022-08-02T23:39:25.187Z,2.83
2022-08-02T23:42:00.425Z,5.63
2022-08-02T23:44:33.678Z,3.57
2022-08-02T23:47:03.077Z,3.77
2022-08-02T23:49:36.425Z,4.23
2022-08-02T23:52:07.615Z,2.87
2022-08-02T23:54:36.981Z,4.53
2022-08-02T23:57:20.446Z,3.03
2022-08-02T23:59:55.059Z,3.47
